Time;durP1;ratioP1;P1;durP2;ratioP2;P2;SDS_P1;SDS_P2;PMS_P1;PMS_P2;Temp;Humidity;BMP_temperature;BMP_pressure;BME280_temperature;BME280_humidity;BME280_pressure;Samples;Min_cycle;Max_cycle;Signal;HPM_P1;HPM_P2
2021/08/23 00:00:05;;;;;;;4.07;2.10;;;;;;;;;;4996297;28;20928;-81
2021/08/23 00:02:31;;;;;;;4.50;2.30;;;;;;;;;;5012940;28;20463;-81
2021/08/23 00:04:57;;;;;;;5.13;2.40;;;;;;;;;;5015670;28;20408;-82
2021/08/23 00:07:23;;;;;;;4.60;2.80;;;;;;;;;;5014545;28;20466;-82
2021/08/23 00:09:50;;;;;;;3.10;2.43;;;;;;;;;;5015638;28;20411;-82
2021/08/23 00:12:16;;;;;;;4.10;2.63;;;;;;;;;;5013473;28;20455;-82
2021/08/23 00:14:42;;;;;;;3.80;2.80;;;;;;;;;;5015909;28;20469;-82
2021/08/23 00:17:08;;;;;;;3.20;2.50;;;;;;;;;;5014179;28;20941;-84
2021/08/23 00:19:35;;;;;;;5.33;3.17;;;;;;;;;;5014829;28;20494;-84
2021/08/23 00:22:19;;;;;;;3.63;2.93;;;;;;;;;;5012664;28;20424;-81
2021/08/23 00:24:45;;;;;;;5.57;2.90;;;;;;;;;;5030023;28;20781;-84
2021/08/23 00:27:11;;;;;;;3.30;2.60;;;;;;;;;;5016001;28;20949;-83
2021/08/23 00:29:37;;;;;;;5.00;2.93;;;;;;;;;;4996110;28;20408;-83
2021/08/23 00:32:03;;;;;;;3.77;2.97;;;;;;;;;;5007559;28;20416;-84
2021/08/23 00:34:29;;;;;;;3.30;2.47;;;;;;;;;;5015973;28;20439;-83
2021/08/23 00:36:55;;;;;;;7.70;2.90;;;;;;;;;;5015105;28;20439;-83
2021/08/23 00:39:21;;;;;;;3.03;2.33;;;;;;;;;;5015859;28;20399;-83
2021/08/23 00:41:47;;;;;;;5.27;2.83;;;;;;;;;;5015709;28;20423;-81
2021/08/23 00:44:13;;;;;;;5.00;3.10;;;;;;;;;;5018885;28;20406;-83
2021/08/23 00:46:39;;;;;;;5.27;3.30;;;;;;;;;;5019467;28;20450;-83
2021/08/23 00:49:05;;;;;;;4.17;3.37;;;;;;;;;;5018720;28;20403;-83
2021/08/23 00:51:32;;;;;;;3.83;3.20;;;;;;;;;;5019365;28;20525;-83
2021/08/23 00:53:58;;;;;;;5.77;3.23;;;;;;;;;;5019079;28;20466;-83
2021/08/23 00:56:24;;;;;;;3.47;2.60;;;;;;;;;;5017666;28;20826;-83
2021/08/23 00:58:51;;;;;;;5.17;3.17;;;;;;;;;;5021272;28;20491;-83
2021/08/23 01:01:28;;;;;;;5.37;2.90;;;;;;;;;;5024720;28;20419;-81
2021/08/23 01:04:03;;;;;;;5.87;3.67;;;;;;;;;;5023597;28;20414;-83
2021/08/23 01:06:30;;;;;;;5.97;2.73;;;;;;;;;;5035583;23;20454;-68
2021/08/23 01:08:58;;;;;;;4.70;3.33;;;;;;;;;;5013713;28;20489;-66
2021/08/23 01:11:25;;;;;;;4.07;3.13;;;;;;;;;;5015873;28;20903;-66
2021/08/23 01:13:51;;;;;;;2.93;2.57;;;;;;;;;;5016717;28;20459;-66
2021/08/23 01:16:18;;;;;;;4.83;3.07;;;;;;;;;;5015545;28;20431;-66
2021/08/23 01:18:44;;;;;;;4.43;3.17;;;;;;;;;;5016629;28;20408;-66
2021/08/23 01:21:16;;;;;;;4.00;2.50;;;;;;;;;;5016480;28;20424;-66
2021/08/23 01:23:44;;;;;;;4.93;3.63;;;;;;;;;;5004467;28;20518;-66
2021/08/23 01:26:12;;;;;;;5.67;3.33;;;;;;;;;;5015259;28;20404;-66
2021/08/23 01:28:42;;;;;;;4.33;3.00;;;;;;;;;;5016483;28;20411;-66
2021/08/23 01:31:11;;;;;;;3.40;2.47;;;;;;;;;;5016463;28;20392;-66
2021/08/23 01:33:39;;;;;;;4.03;3.00;;;;;;;;;;5015368;28;20475;-66
2021/08/23 01:36:05;;;;;;;3.50;2.70;;;;;;;;;;5016625;28;20842;-66
2021/08/23 01:38:31;;;;;;;3.80;3.20;;;;;;;;;;5015352;28;20778;-66
2021/08/23 01:41:01;;;;;;;3.50;2.60;;;;;;;;;;5016131;28;20901;-66
2021/08/23 01:43:27;;;;;;;3.67;2.60;;;;;;;;;;5015526;28;20439;-66
2021/08/23 01:45:53;;;;;;;3.77;2.60;;;;;;;;;;5016134;28;20483;-66
2021/08/23 01:48:19;;;;;;;3.70;2.50;;;;;;;;;;5015509;28;20854;-66
2021/08/23 01:50:45;;;;;;;3.90;2.87;;;;;;;;;;5015918;28;20431;-66
2021/08/23 01:53:11;;;;;;;2.90;2.40;;;;;;;;;;5015002;28;20495;-66
2021/08/23 01:55:37;;;;;;;4.20;2.67;;;;;;;;;;5015891;28;20411;-66
2021/08/23 01:58:04;;;;;;;4.40;3.00;;;;;;;;;;5014986;28;20431;-66
2021/08/23 02:00:30;;;;;;;6.80;2.90;;;;;;;;;;5013934;28;20463;-66
2021/08/23 02:02:56;;;;;;;5.20;2.90;;;;;;;;;;5014973;28;20435;-66
2021/08/23 02:05:22;;;;;;;5.13;2.70;;;;;;;;;;5016046;28;20419;-66
2021/08/23 02:07:48;;;;;;;4.60;3.20;;;;;;;;;;5014716;28;20943;-66
2021/08/23 02:10:15;;;;;;;3.70;2.70;;;;;;;;;;5014549;28;20432;-66
2021/08/23 02:12:41;;;;;;;3.50;2.43;;;;;;;;;;5013789;28;20566;-66
2021/08/23 02:15:08;;;;;;;6.33;3.00;;;;;;;;;;5015816;28;20482;-66
2021/08/23 02:17:34;;;;;;;3.83;2.70;;;;;;;;;;5014721;28;20450;-66
2021/08/23 02:20:00;;;;;;;3.60;2.70;;;;;;;;;;5015346;28;20917;-66
2021/08/23 02:22:26;;;;;;;4.17;2.60;;;;;;;;;;5014497;28;20439;-66
2021/08/23 02:24:52;;;;;;;5.70;3.20;;;;;;;;;;5015404;28;20969;-66
2021/08/23 02:27:18;;;;;;;4.03;3.10;;;;;;;;;;5013504;28;20470;-66
2021/08/23 02:29:44;;;;;;;4.93;2.83;;;;;;;;;;5015269;28;20424;-66
2021/08/23 02:32:10;;;;;;;3.97;2.40;;;;;;;;;;5014300;28;20473;-66
2021/08/23 02:34:36;;;;;;;2.97;2.43;;;;;;;;;;5014412;28;20459;-66
2021/08/23 02:37:02;;;;;;;4.23;2.77;;;;;;;;;;5014315;28;20446;-66
2021/08/23 02:39:28;;;;;;;3.00;2.30;;;;;;;;;;5015037;28;20925;-66
2021/08/23 02:41:54;;;;;;;3.70;2.30;;;;;;;;;;5014196;28;20443;-66
2021/08/23 02:44:23;;;;;;;3.60;2.40;;;;;;;;;;5015291;28;20777;-66
2021/08/23 02:46:50;;;;;;;4.10;2.80;;;;;;;;;;5013921;28;20458;-66
2021/08/23 02:49:16;;;;;;;4.20;2.50;;;;;;;;;;5015057;28;20886;-66
2021/08/23 02:51:43;;;;;;;4.07;2.63;;;;;;;;;;5014882;28;20889;-66
2021/08/23 02:54:09;;;;;;;3.17;2.23;;;;;;;;;;5008806;28;20555;-66
2021/08/23 02:56:35;;;;;;;2.63;2.07;;;;;;;;;;4998868;28;20499;-66
2021/08/23 02:59:01;;;;;;;3.90;2.50;;;;;;;;;;5008734;28;20451;-66
2021/08/23 03:01:27;;;;;;;3.90;2.63;;;;;;;;;;4995282;28;20416;-66
2021/08/23 03:03:53;;;;;;;4.13;2.53;;;;;;;;;;5010461;28;20431;-66
2021/08/23 03:06:20;;;;;;;5.73;2.97;;;;;;;;;;5014094;28;20403;-66
2021/08/23 03:08:46;;;;;;;6.17;2.67;;;;;;;;;;5013563;28;20461;-66
2021/08/23 03:11:14;;;;;;;5.50;2.70;;;;;;;;;;5014568;28;20404;-66
2021/08/23 03:13:40;;;;;;;3.13;2.20;;;;;;;;;;5013767;28;20467;-66
2021/08/23 03:16:07;;;;;;;3.97;2.70;;;;;;;;;;5014752;28;20478;-66
2021/08/23 03:18:33;;;;;;;3.80;2.30;;;;;;;;;;5013561;28;20428;-66
2021/08/23 03:20:59;;;;;;;3.20;2.10;;;;;;;;;;5014432;28;20399;-66
2021/08/23 03:23:25;;;;;;;3.80;2.37;;;;;;;;;;5013673;28;20435;-66
2021/08/23 03:25:51;;;;;;;4.33;2.70;;;;;;;;;;5014340;28;20400;-66
2021/08/23 03:28:17;;;;;;;4.17;2.80;;;;;;;;;;5013447;28;20445;-66
2021/08/23 03:30:44;;;;;;;3.53;2.43;;;;;;;;;;5014331;28;20423;-66
2021/08/23 03:33:10;;;;;;;4.00;2.37;;;;;;;;;;5012625;28;20474;-66
2021/08/23 03:35:36;;;;;;;5.07;2.50;;;;;;;;;;5012876;28;20431;-66
2021/08/23 03:38:02;;;;;;;4.80;2.47;;;;;;;;;;5013561;28;20915;-66
2021/08/23 03:40:28;;;;;;;3.60;2.73;;;;;;;;;;5012297;28;20463;-66
2021/08/23 03:42:55;;;;;;;3.83;2.20;;;;;;;;;;5012889;28;20424;-66
2021/08/23 03:45:21;;;;;;;4.00;2.20;;;;;;;;;;5014075;28;20407;-66
2021/08/23 03:47:47;;;;;;;6.80;2.30;;;;;;;;;;5013451;28;20554;-66
2021/08/23 03:50:13;;;;;;;7.10;2.30;;;;;;;;;;5013889;28;20514;-66
2021/08/23 03:52:39;;;;;;;4.43;2.67;;;;;;;;;;5013241;28;20963;-66
2021/08/23 03:55:05;;;;;;;3.60;2.40;;;;;;;;;;5012619;28;20408;-66
2021/08/23 03:57:33;;;;;;;2.70;2.17;;;;;;;;;;5013890;28;20404;-66
2021/08/23 03:59:59;;;;;;;5.93;2.20;;;;;;;;;;5012842;28;20454;-65
2021/08/23 04:02:25;;;;;;;4.70;2.73;;;;;;;;;;5013803;28;20395;-65
2021/08/23 04:04:51;;;;;;;3.80;2.70;;;;;;;;;;5013196;28;20519;-65
2021/08/23 04:07:17;;;;;;;5.03;2.60;;;;;;;;;;5013750;28;20490;-65
2021/08/23 04:09:43;;;;;;;3.70;2.43;;;;;;;;;;5012577;28;20451;-65
2021/08/23 04:12:10;;;;;;;2.70;2.10;;;;;;;;;;5013840;28;20778;-65
2021/08/23 04:14:36;;;;;;;2.93;2.40;;;;;;;;;;5012701;28;20435;-65
2021/08/23 04:17:02;;;;;;;3.37;2.30;;;;;;;;;;5012188;28;20821;-65
2021/08/23 04:19:29;;;;;;;3.80;2.50;;;;;;;;;;5012559;28;20534;-65
2021/08/23 04:21:55;;;;;;;4.57;2.60;;;;;;;;;;5013479;28;20411;-65
2021/08/23 04:24:21;;;;;;;4.67;2.50;;;;;;;;;;5012632;28;20435;-65
2021/08/23 04:26:47;;;;;;;4.83;3.23;;;;;;;;;;5013520;28;20407;-65
2021/08/23 04:29:15;;;;;;;3.03;2.63;;;;;;;;;;5012516;28;20455;-65
2021/08/23 04:31:41;;;;;;;4.10;2.63;;;;;;;;;;5013678;28;20411;-65
2021/08/23 04:34:07;;;;;;;3.90;2.30;;;;;;;;;;5012628;28;20466;-65
2021/08/23 04:36:33;;;;;;;4.47;3.00;;;;;;;;;;5013366;28;20408;-65
2021/08/23 04:38:59;;;;;;;5.40;2.80;;;;;;;;;;5012442;28;20452;-65
2021/08/23 04:41:25;;;;;;;5.30;2.83;;;;;;;;;;5013443;28;20767;-65
2021/08/23 04:43:51;;;;;;;3.63;2.30;;;;;;;;;;5012642;28;20489;-65
2021/08/23 04:46:18;;;;;;;6.40;2.50;;;;;;;;;;5013278;28;20992;-65
2021/08/23 04:48:44;;;;;;;3.30;2.50;;;;;;;;;;5012614;28;20794;-65
2021/08/23 04:51:10;;;;;;;9.47;2.90;;;;;;;;;;5013146;28;20988;-65
2021/08/23 04:53:36;;;;;;;4.67;2.53;;;;;;;;;;5012305;28;20465;-65
2021/08/23 04:56:03;;;;;;;4.20;2.20;;;;;;;;;;5013179;28;20403;-65
2021/08/23 04:58:29;;;;;;;3.33;2.60;;;;;;;;;;5012253;28;20423;-65
2021/08/23 05:00:55;;;;;;;3.80;2.67;;;;;;;;;;5013099;28;20747;-65
2021/08/23 05:03:21;;;;;;;5.60;2.57;;;;;;;;;;5011619;28;20476;-65
2021/08/23 05:05:48;;;;;;;5.43;2.47;;;;;;;;;;5013201;28;20400;-65
2021/08/23 05:08:17;;;;;;;3.60;2.83;;;;;;;;;;5012007;28;20497;-65
2021/08/23 05:10:43;;;;;;;3.73;2.50;;;;;;;;;;5012938;28;20431;-65
2021/08/23 05:13:09;;;;;;;3.40;2.40;;;;;;;;;;5012232;28;20458;-65
2021/08/23 05:15:35;;;;;;;5.23;2.77;;;;;;;;;;5012931;28;20773;-65
2021/08/23 05:18:01;;;;;;;11.00;2.93;;;;;;;;;;5012079;28;20419;-65
2021/08/23 05:20:27;;;;;;;2.53;2.00;;;;;;;;;;5012309;28;20452;-65
2021/08/23 05:22:53;;;;;;;3.93;2.40;;;;;;;;;;5012076;28;20431;-65
2021/08/23 05:25:19;;;;;;;3.37;2.37;;;;;;;;;;5012158;28;20442;-65
2021/08/23 05:27:46;;;;;;;3.83;2.63;;;;;;;;;;5013148;28;20865;-65
2021/08/23 05:30:12;;;;;;;4.57;2.00;;;;;;;;;;5014437;28;20458;-65
2021/08/23 05:32:38;;;;;;;4.60;2.23;;;;;;;;;;5016399;28;20938;-66
2021/08/23 05:35:04;;;;;;;4.70;2.87;;;;;;;;;;5013313;28;20427;-66
2021/08/23 05:37:30;;;;;;;5.10;2.50;;;;;;;;;;5015540;28;20935;-66
2021/08/23 05:39:57;;;;;;;2.93;1.93;;;;;;;;;;5016618;28;20831;-66
2021/08/23 05:42:23;;;;;;;4.63;2.60;;;;;;;;;;5015286;28;20436;-66
2021/08/23 05:44:48;;;;;;;2.77;2.03;;;;;;;;;;5016089;28;20415;-66
2021/08/23 05:47:14;;;;;;;3.93;2.47;;;;;;;;;;5015163;28;20484;-66
2021/08/23 05:49:40;;;;;;;4.57;2.40;;;;;;;;;;5016293;28;20505;-66
2021/08/23 05:52:07;;;;;;;4.30;2.50;;;;;;;;;;5015079;28;20481;-66
2021/08/23 05:54:33;;;;;;;3.33;2.47;;;;;;;;;;5016075;28;20400;-66
2021/08/23 05:57:00;;;;;;;6.60;2.00;;;;;;;;;;5015446;28;20427;-66
2021/08/23 05:59:26;;;;;;;6.20;1.93;;;;;;;;;;5016185;28;20511;-66
2021/08/23 06:01:53;;;;;;;4.83;1.80;;;;;;;;;;5014382;28;20817;-66
2021/08/23 06:04:20;;;;;;;5.23;2.50;;;;;;;;;;5015803;28;20415;-66
2021/08/23 06:06:46;;;;;;;4.13;2.13;;;;;;;;;;5014287;28;20451;-66
2021/08/23 06:09:12;;;;;;;2.90;2.33;;;;;;;;;;5015663;28;20415;-66
2021/08/23 06:11:38;;;;;;;4.10;2.50;;;;;;;;;;5014926;28;20396;-66
2021/08/23 06:14:04;;;;;;;4.27;2.37;;;;;;;;;;5015427;28;20466;-66
2021/08/23 06:16:30;;;;;;;3.60;2.27;;;;;;;;;;5015391;28;20399;-66
2021/08/23 06:18:56;;;;;;;5.80;2.30;;;;;;;;;;5013832;28;20447;-66
2021/08/23 06:21:22;;;;;;;4.40;2.23;;;;;;;;;;5014297;28;20443;-66
2021/08/23 06:23:48;;;;;;;3.73;2.20;;;;;;;;;;5014486;28;20432;-66
2021/08/23 06:26:14;;;;;;;3.30;1.90;;;;;;;;;;5015326;28;20915;-66
2021/08/23 06:28:40;;;;;;;3.40;2.30;;;;;;;;;;5014474;28;20515;-66
2021/08/23 06:31:06;;;;;;;3.90;2.17;;;;;;;;;;5015243;28;20408;-66
2021/08/23 06:33:32;;;;;;;4.57;2.60;;;;;;;;;;5014321;28;20455;-66
2021/08/23 06:35:58;;;;;;;5.40;2.20;;;;;;;;;;5015181;28;20486;-66
2021/08/23 06:38:24;;;;;;;4.90;2.30;;;;;;;;;;5013716;28;20790;-66
2021/08/23 06:40:50;;;;;;;6.13;2.03;;;;;;;;;;5014452;28;20947;-66
2021/08/23 06:43:16;;;;;;;3.70;1.80;;;;;;;;;;5014627;28;20427;-66
2021/08/23 06:45:42;;;;;;;4.43;2.40;;;;;;;;;;5015332;28;20491;-66
2021/08/23 06:48:08;;;;;;;2.97;2.10;;;;;;;;;;5014276;28;20934;-66
2021/08/23 06:50:34;;;;;;;3.60;2.23;;;;;;;;;;5014968;28;20455;-66
2021/08/23 06:53:02;;;;;;;3.47;2.10;;;;;;;;;;5014378;28;20532;-66
2021/08/23 06:55:28;;;;;;;4.60;2.30;;;;;;;;;;5015138;28;20472;-66
2021/08/23 06:57:54;;;;;;;3.97;2.23;;;;;;;;;;5013873;28;20447;-66
2021/08/23 07:00:20;;;;;;;2.83;1.77;;;;;;;;;;5014599;28;20427;-66
2021/08/23 07:02:47;;;;;;;5.47;2.43;;;;;;;;;;5012313;28;20427;-66
2021/08/23 07:05:13;;;;;;;3.70;1.87;;;;;;;;;;5014891;28;20821;-66
2021/08/23 07:07:39;;;;;;;4.90;2.30;;;;;;;;;;5013592;28;20948;-66
2021/08/23 07:10:08;;;;;;;2.13;1.60;;;;;;;;;;5011010;28;21059;-65
2021/08/23 07:12:34;;;;;;;3.60;2.10;;;;;;;;;;5012634;28;20498;-65
2021/08/23 07:15:00;;;;;;;4.70;2.20;;;;;;;;;;5014361;28;20410;-66
2021/08/23 07:17:26;;;;;;;4.37;2.03;;;;;;;;;;5013832;28;20510;-66
2021/08/23 07:19:52;;;;;;;3.23;2.00;;;;;;;;;;5014273;28;20427;-66
2021/08/23 07:22:19;;;;;;;3.27;2.40;;;;;;;;;;5027874;23;20840;-69
2021/08/23 07:24:46;;;;;;;7.20;2.90;;;;;;;;;;5030366;28;20423;-73
2021/08/23 07:27:12;;;;;;;6.33;2.13;;;;;;;;;;5027620;28;20836;-74
2021/08/23 07:29:38;;;;;;;2.60;1.90;;;;;;;;;;5033879;28;20892;-71
2021/08/23 07:32:04;;;;;;;7.80;2.57;;;;;;;;;;5040025;28;20975;-70
2021/08/23 07:34:30;;;;;;;2.43;1.87;;;;;;;;;;5053748;28;20413;-71
2021/08/23 07:36:56;;;;;;;4.33;2.30;;;;;;;;;;5053896;28;20406;-71
2021/08/23 07:39:22;;;;;;;4.60;2.47;;;;;;;;;;5052449;28;20939;-71
2021/08/23 07:41:50;;;;;;;13.73;2.80;;;;;;;;;;5043298;28;20437;-67
2021/08/23 07:44:16;;;;;;;3.10;2.13;;;;;;;;;;5043171;28;20423;-68
2021/08/23 07:46:42;;;;;;;5.47;2.63;;;;;;;;;;5051232;28;20437;-69
2021/08/23 07:49:08;;;;;;;5.97;2.10;;;;;;;;;;5052690;28;20795;-67
2021/08/23 07:51:34;;;;;;;3.60;2.40;;;;;;;;;;5053732;28;20505;-67
2021/08/23 07:54:00;;;;;;;8.93;1.97;;;;;;;;;;5053310;28;20519;-69
2021/08/23 07:56:26;;;;;;;2.83;1.90;;;;;;;;;;5054324;28;20409;-68
2021/08/23 07:58:52;;;;;;;4.00;2.30;;;;;;;;;;5053304;28;20452;-68
2021/08/23 08:01:19;;;;;;;4.13;2.30;;;;;;;;;;5041661;28;20407;-68
2021/08/23 08:03:45;;;;;;;3.70;2.57;;;;;;;;;;5042648;28;20433;-65
2021/08/23 08:06:11;;;;;;;5.20;3.27;;;;;;;;;;5054470;28;20421;-67
2021/08/23 08:08:37;;;;;;;2.83;2.27;;;;;;;;;;5053403;28;20422;-67
2021/08/23 08:11:03;;;;;;;2.80;2.00;;;;;;;;;;5053080;28;20438;-68
2021/08/23 08:13:29;;;;;;;4.50;2.33;;;;;;;;;;5052605;28;20834;-69
2021/08/23 08:15:55;;;;;;;5.10;2.50;;;;;;;;;;5053813;28;20434;-66
2021/08/23 08:18:21;;;;;;;3.80;2.60;;;;;;;;;;5049154;28;20475;-70
2021/08/23 08:20:48;;;;;;;3.13;2.00;;;;;;;;;;5050197;28;20427;-67
2021/08/23 08:23:14;;;;;;;5.27;2.63;;;;;;;;;;5046983;28;20512;-71
2021/08/23 08:25:40;;;;;;;3.30;2.07;;;;;;;;;;5046606;28;20421;-69
2021/08/23 08:28:06;;;;;;;4.83;2.40;;;;;;;;;;5046471;28;20452;-70
2021/08/23 08:30:32;;;;;;;2.67;1.87;;;;;;;;;;5053121;28;20844;-69
2021/08/23 08:32:58;;;;;;;4.50;1.90;;;;;;;;;;5052280;28;20481;-68
2021/08/23 08:35:24;;;;;;;6.73;2.37;;;;;;;;;;5052291;28;20405;-68
2021/08/23 08:37:52;;;;;;;4.10;2.30;;;;;;;;;;5052728;28;20398;-70
2021/08/23 08:40:18;;;;;;;4.17;2.03;;;;;;;;;;5052923;28;20402;-70
2021/08/23 08:42:44;;;;;;;3.47;2.20;;;;;;;;;;5041031;28;20456;-69
2021/08/23 08:45:11;;;;;;;4.17;2.43;;;;;;;;;;5045767;28;20914;-69
2021/08/23 08:47:40;;;;;;;3.83;2.33;;;;;;;;;;5044110;28;20413;-69
2021/08/23 08:50:06;;;;;;;3.80;2.40;;;;;;;;;;5047633;28;20432;-66
2021/08/23 08:52:33;;;;;;;5.10;2.47;;;;;;;;;;5050174;28;20544;-67
2021/08/23 08:54:59;;;;;;;3.83;2.40;;;;;;;;;;5051643;28;20505;-67
2021/08/23 08:57:25;;;;;;;3.60;2.07;;;;;;;;;;5051915;28;20473;-67
2021/08/23 08:59:51;;;;;;;3.63;2.70;;;;;;;;;;5045785;28;20433;-69
2021/08/23 09:02:17;;;;;;;3.50;2.30;;;;;;;;;;5045511;28;20452;-69
2021/08/23 09:04:43;;;;;;;3.10;1.80;;;;;;;;;;5051411;28;20940;-68
2021/08/23 09:07:10;;;;;;;3.23;2.10;;;;;;;;;;5052910;28;20481;-70
2021/08/23 09:09:36;;;;;;;2.50;2.13;;;;;;;;;;5048865;28;20432;-69
2021/08/23 09:12:06;;;;;;;3.53;2.03;;;;;;;;;;5048296;28;20442;-70
2021/08/23 09:14:33;;;;;;;2.77;2.30;;;;;;;;;;5052669;28;20435;-71
2021/08/23 09:17:09;;;;;;;3.47;2.33;;;;;;;;;;5046124;28;20428;-69
2021/08/23 09:19:36;;;;;;;4.23;2.20;;;;;;;;;;5043915;28;20470;-69
2021/08/23 09:22:03;;;;;;;3.70;1.93;;;;;;;;;;5047970;28;20442;-68
2021/08/23 09:24:29;;;;;;;4.30;2.30;;;;;;;;;;5054442;28;20445;-69
2021/08/23 09:27:03;;;;;;;3.37;1.83;;;;;;;;;;5052268;28;20428;-72
2021/08/23 09:29:29;;;;;;;3.53;1.90;;;;;;;;;;5065911;28;20425;-70
2021/08/23 09:31:59;;;;;;;4.77;2.10;;;;;;;;;;5047400;28;20838;-68
2021/08/23 09:34:25;;;;;;;4.27;2.43;;;;;;;;;;5053656;28;20457;-68
2021/08/23 09:36:58;;;;;;;4.13;2.10;;;;;;;;;;5050445;28;20779;-68
2021/08/23 09:39:28;;;;;;;3.50;2.13;;;;;;;;;;5055355;28;20434;-68
2021/08/23 09:42:04;;;;;;;3.57;2.03;;;;;;;;;;5055124;28;20956;-68
2021/08/23 09:44:34;;;;;;;3.60;2.43;;;;;;;;;;5055009;28;20433;-68
2021/08/23 09:47:00;;;;;;;6.23;2.67;;;;;;;;;;5054750;28;20777;-68
2021/08/23 09:49:33;;;;;;;4.93;2.30;;;;;;;;;;5054566;28;20430;-69
2021/08/23 09:51:59;;;;;;;6.17;2.53;;;;;;;;;;5054994;28;20445;-69
2021/08/23 09:54:25;;;;;;;5.13;2.37;;;;;;;;;;5054098;28;20453;-68
2021/08/23 09:56:53;;;;;;;3.17;1.97;;;;;;;;;;5055340;28;20540;-69
2021/08/23 09:59:25;;;;;;;8.20;2.80;;;;;;;;;;5054809;28;21000;-69
2021/08/23 10:01:52;;;;;;;8.80;1.90;;;;;;;;;;5055348;28;20483;-68
2021/08/23 10:04:19;;;;;;;3.23;1.80;;;;;;;;;;5051777;28;20433;-68
2021/08/23 10:06:46;;;;;;;6.83;2.53;;;;;;;;;;5035610;28;20802;-69
2021/08/23 10:09:16;;;;;;;2.70;1.80;;;;;;;;;;5036743;28;20794;-68
2021/08/23 10:11:42;;;;;;;4.10;1.90;;;;;;;;;;5055026;28;20789;-68
2021/08/23 10:14:08;;;;;;;4.70;2.37;;;;;;;;;;5052338;28;21012;-68
2021/08/23 10:16:38;;;;;;;3.07;1.80;;;;;;;;;;5054358;28;20493;-69
2021/08/23 10:19:05;;;;;;;4.40;2.10;;;;;;;;;;5054408;28;20425;-69
2021/08/23 10:21:31;;;;;;;2.60;2.13;;;;;;;;;;5053064;28;20433;-69
2021/08/23 10:23:58;;;;;;;2.97;1.67;;;;;;;;;;5054807;28;20481;-70
2021/08/23 10:26:24;;;;;;;3.97;2.10;;;;;;;;;;5054374;28;20860;-68
2021/08/23 10:28:50;;;;;;;3.43;1.87;;;;;;;;;;5054413;28;20417;-68
2021/08/23 10:31:18;;;;;;;2.43;1.30;;;;;;;;;;5054344;28;20816;-68
2021/08/23 10:33:46;;;;;;;3.70;1.70;;;;;;;;;;5055944;28;20834;-69
2021/08/23 10:36:12;;;;;;;2.83;1.87;;;;;;;;;;5053483;28;20914;-68
2021/08/23 10:38:42;;;;;;;2.67;1.70;;;;;;;;;;5053402;28;20926;-69
2021/08/23 10:41:24;;;;;;;2.67;1.60;;;;;;;;;;5052543;28;20422;-69
2021/08/23 10:43:54;;;;;;;3.10;1.77;;;;;;;;;;5053752;28;20410;-69
2021/08/23 10:46:24;;;;;;;3.70;2.17;;;;;;;;;;5048722;28;20788;-70
2021/08/23 10:48:51;;;;;;;3.37;1.83;;;;;;;;;;5053882;28;20781;-69
2021/08/23 10:51:37;;;;;;;2.40;1.50;;;;;;;;;;5053845;28;20429;-69
2021/08/23 10:54:08;;;;;;;5.40;2.43;;;;;;;;;;5054697;28;20495;-68
2021/08/23 10:56:36;;;;;;;4.33;2.20;;;;;;;;;;5054142;28;20394;-69
2021/08/23 10:59:11;;;;;;;3.33;1.93;;;;;;;;;;5053922;28;20512;-69
2021/08/23 11:01:37;;;;;;;2.50;1.97;;;;;;;;;;5052529;28;20473;-68
2021/08/23 11:04:04;;;;;;;4.30;1.70;;;;;;;;;;5054362;28;20778;-69
2021/08/23 11:06:32;;;;;;;3.90;1.80;;;;;;;;;;5053012;28;20421;-68
2021/08/23 11:09:12;;;;;;;3.23;1.60;;;;;;;;;;5054725;28;21049;-69
2021/08/23 11:11:48;;;;;;;2.73;1.60;;;;;;;;;;5052416;28;20469;-69
2021/08/23 11:14:21;;;;;;;3.03;1.47;;;;;;;;;;5052186;28;20459;-69
2021/08/23 11:16:51;;;;;;;6.13;1.37;;;;;;;;;;5032819;28;20446;-69
2021/08/23 11:19:19;;;;;;;5.37;1.90;;;;;;;;;;5034245;28;20400;-69
2021/08/23 11:21:47;;;;;;;3.67;1.77;;;;;;;;;;5034841;28;20458;-69
2021/08/23 11:24:18;;;;;;;2.30;1.57;;;;;;;;;;5052708;28;20449;-70
2021/08/23 11:26:52;;;;;;;2.67;1.63;;;;;;;;;;5052274;28;20410;-69
2021/08/23 11:29:18;;;;;;;2.50;1.80;;;;;;;;;;5053919;28;20420;-69
2021/08/23 11:31:54;;;;;;;4.23;1.50;;;;;;;;;;5053148;28;20945;-68
2021/08/23 11:34:23;;;;;;;2.60;1.47;;;;;;;;;;5053391;28;20441;-68
2021/08/23 11:36:50;;;;;;;2.93;1.50;;;;;;;;;;5033794;28;20919;-68
2021/08/23 11:39:16;;;;;;;2.73;1.90;;;;;;;;;;5033826;28;20712;-68
2021/08/23 11:41:42;;;;;;;3.20;2.10;;;;;;;;;;5052507;28;21025;-68
2021/08/23 11:44:08;;;;;;;4.37;1.90;;;;;;;;;;5053494;28;20446;-68
2021/08/23 11:46:34;;;;;;;4.60;1.70;;;;;;;;;;5051656;28;20428;-67
2021/08/23 11:49:00;;;;;;;3.00;2.00;;;;;;;;;;5053120;28;20406;-68
2021/08/23 11:51:26;;;;;;;3.20;1.67;;;;;;;;;;5052235;28;20453;-68
2021/08/23 11:53:52;;;;;;;2.90;1.83;;;;;;;;;;5053009;28;20453;-68
2021/08/23 11:56:18;;;;;;;3.23;2.37;;;;;;;;;;5052212;28;20421;-68
2021/08/23 11:58:44;;;;;;;3.20;2.00;;;;;;;;;;5053537;28;20404;-68
2021/08/23 12:01:14;;;;;;;4.83;2.20;;;;;;;;;;5052356;28;20444;-68
2021/08/23 12:03:40;;;;;;;3.10;2.00;;;;;;;;;;5053320;28;20416;-68
2021/08/23 12:06:10;;;;;;;2.90;1.63;;;;;;;;;;5051897;28;20469;-68
2021/08/23 12:08:38;;;;;;;2.40;1.60;;;;;;;;;;5053151;28;20406;-68
2021/08/23 12:11:14;;;;;;;2.80;1.60;;;;;;;;;;5044432;28;20517;-68
2021/08/23 12:13:41;;;;;;;3.27;2.00;;;;;;;;;;5050228;28;20880;-68
2021/08/23 12:16:09;;;;;;;4.07;1.67;;;;;;;;;;5052118;28;20432;-68
2021/08/23 12:18:45;;;;;;;3.50;1.73;;;;;;;;;;5053095;28;20401;-68
2021/08/23 12:21:14;;;;;;;2.60;1.53;;;;;;;;;;5050812;28;20471;-68
2021/08/23 12:23:47;;;;;;;3.93;1.90;;;;;;;;;;5051785;28;20441;-68
2021/08/23 12:26:14;;;;;;;4.40;2.20;;;;;;;;;;5051732;28;20425;-68
2021/08/23 12:28:50;;;;;;;2.50;1.60;;;;;;;;;;5052918;28;20414;-68
2021/08/23 12:31:17;;;;;;;3.40;1.90;;;;;;;;;;5051547;28;20792;-68
2021/08/23 12:33:43;;;;;;;3.10;1.77;;;;;;;;;;5052407;28;20489;-68
2021/08/23 12:36:10;;;;;;;4.57;2.10;;;;;;;;;;5051633;28;20429;-68
2021/08/23 12:38:36;;;;;;;4.07;1.80;;;;;;;;;;5052384;28;20413;-68
2021/08/23 12:41:02;;;;;;;3.10;1.70;;;;;;;;;;5055389;28;20406;-68
2021/08/23 12:43:28;;;;;;;3.07;2.00;;;;;;;;;;5056250;28;20906;-68
2021/08/23 12:45:54;;;;;;;2.63;1.53;;;;;;;;;;5055894;28;20770;-68
2021/08/23 12:48:20;;;;;;;5.13;1.30;;;;;;;;;;5049794;28;20429;-68
2021/08/23 12:50:46;;;;;;;3.77;1.87;;;;;;;;;;5056281;28;20429;-68
2021/08/23 12:53:13;;;;;;;3.00;1.80;;;;;;;;;;5056533;28;20467;-68
2021/08/23 12:55:39;;;;;;;3.70;1.60;;;;;;;;;;5056954;28;20397;-68
2021/08/23 12:58:05;;;;;;;4.23;1.77;;;;;;;;;;5056598;28;20828;-68
2021/08/23 13:00:32;;;;;;;4.03;2.10;;;;;;;;;;5056892;28;20455;-68
2021/08/23 13:02:59;;;;;;;4.27;1.87;;;;;;;;;;5056035;28;20547;-68
2021/08/23 13:05:25;;;;;;;5.57;2.20;;;;;;;;;;5055664;28;20437;-68
2021/08/23 13:07:51;;;;;;;3.90;2.07;;;;;;;;;;5054846;28;20437;-68
2021/08/23 13:10:17;;;;;;;5.10;2.07;;;;;;;;;;5055295;28;20456;-68
2021/08/23 13:12:43;;;;;;;2.97;2.00;;;;;;;;;;5053118;28;20497;-68
2021/08/23 13:15:09;;;;;;;4.80;1.90;;;;;;;;;;5056186;28;20409;-68
2021/08/23 13:17:35;;;;;;;4.03;2.00;;;;;;;;;;5054996;28;20433;-68
2021/08/23 13:20:01;;;;;;;3.90;2.00;;;;;;;;;;5056410;28;20466;-68
2021/08/23 13:22:27;;;;;;;3.63;2.03;;;;;;;;;;5054797;28;20568;-69
2021/08/23 13:24:53;;;;;;;3.17;1.53;;;;;;;;;;5055939;28;20484;-69
2021/08/23 13:27:19;;;;;;;4.43;1.47;;;;;;;;;;5055889;28;20430;-69
2021/08/23 13:29:46;;;;;;;2.80;1.67;;;;;;;;;;5056838;28;20867;-69
2021/08/23 13:32:12;;;;;;;3.97;2.43;;;;;;;;;;5054010;28;20445;-69
2021/08/23 13:34:38;;;;;;;3.47;2.00;;;;;;;;;;5055537;28;20461;-69
2021/08/23 13:37:04;;;;;;;4.77;2.97;;;;;;;;;;5054025;28;20429;-69
2021/08/23 13:39:30;;;;;;;2.90;1.87;;;;;;;;;;5056103;28;20429;-69
2021/08/23 13:41:56;;;;;;;3.83;1.87;;;;;;;;;;5055142;28;20479;-69
2021/08/23 13:44:22;;;;;;;3.13;1.80;;;;;;;;;;5056036;28;20800;-69
2021/08/23 13:46:48;;;;;;;4.77;2.60;;;;;;;;;;5055230;28;20405;-69
2021/08/23 13:49:14;;;;;;;2.67;1.67;;;;;;;;;;5055578;28;20414;-68
2021/08/23 13:51:40;;;;;;;2.97;1.90;;;;;;;;;;5055061;28;20454;-69
2021/08/23 13:54:06;;;;;;;6.00;2.20;;;;;;;;;;5053561;28;20492;-69
2021/08/23 13:56:32;;;;;;;3.90;2.43;;;;;;;;;;5055763;28;20428;-69
2021/08/23 13:58:59;;;;;;;3.40;1.67;;;;;;;;;;5055078;28;20445;-68
2021/08/23 14:01:25;;;;;;;3.37;2.00;;;;;;;;;;5055600;28;20509;-69
2021/08/23 14:03:51;;;;;;;5.20;1.90;;;;;;;;;;5054900;28;20559;-69
2021/08/23 14:06:18;;;;;;;3.47;1.50;;;;;;;;;;5053388;28;20480;-70
2021/08/23 14:08:44;;;;;;;3.70;1.70;;;;;;;;;;5054599;28;20436;-69
2021/08/23 14:11:10;;;;;;;3.27;1.63;;;;;;;;;;5055584;28;20441;-69
2021/08/23 14:13:36;;;;;;;4.40;2.10;;;;;;;;;;5054635;28;20469;-69
2021/08/23 14:16:02;;;;;;;2.63;1.73;;;;;;;;;;5055420;28;20512;-69
2021/08/23 14:18:28;;;;;;;7.23;2.43;;;;;;;;;;5054820;28;20797;-69
2021/08/23 14:20:55;;;;;;;6.27;2.27;;;;;;;;;;5055335;28;20483;-69
2021/08/23 14:23:21;;;;;;;3.63;1.73;;;;;;;;;;5054179;28;20461;-69
2021/08/23 14:25:48;;;;;;;4.10;1.60;;;;;;;;;;5055087;28;20398;-69
2021/08/23 14:28:14;;;;;;;3.07;1.80;;;;;;;;;;5053846;28;20430;-69
2021/08/23 14:30:41;;;;;;;3.70;2.80;;;;;;;;;;5054648;28;20456;-69
2021/08/23 14:33:07;;;;;;;3.60;1.83;;;;;;;;;;5054448;28;20484;-69
2021/08/23 14:35:33;;;;;;;3.43;1.70;;;;;;;;;;5055369;28;20409;-69
2021/08/23 14:37:59;;;;;;;2.67;1.73;;;;;;;;;;5054320;28;20782;-70
2021/08/23 14:40:26;;;;;;;2.97;1.80;;;;;;;;;;5054829;28;20428;-69